x

South Hecate Strait (46185) Wave Buoy

10:00am - Fri 20th Jan 2017 All times are PST. -8 hours from GMT.

  • Sig Wave height 7.5ft
  • Peak Period 13s
  • Wind
    9mph, 11mph gusts
  • Sea Temp 49°f
  • Air Temp 42°f
  • Sea Pressure 990.6mb
  • South Hecate Strait
  • South Hecate Strait

More Historic Weather Station data

Upgrade to MSW Pro to gain access to the past 30 days of data for over 8000 Wavebouys and Weather Stations around the globe.

Join Pro

Comparision Forecast

View Surf forecast
   
Fri 01/20 10:00am 7.5ft 13s 9 11 mph 990.6mb 49f 42f
9:00am 8.5ft 13s 11 13 mph 990.3mb 49f 42f
8:00am 8ft 15s 13 18 mph 990.1mb 49f 44f
7:00am 8.5ft 15s 11 16 mph 990.1mb 49f 45f
6:00am 10ft 13s 13 16 mph 990.2mb 49f 45f
5:00am 11ft 14s 16 18 mph 990.3mb 49f 45f
4:00am 10.5ft 13s 4 9 mph 990.7mb 49f 45f
3:00am 12ft 14s 7 9 mph 991.2mb 49f 45f
2:00am 12ft 15s 4 7 mph 991.4mb 48f 44f
1:00am 12ft 16s 2 7 mph 991.7mb 48f 44f
12:00am 11.5ft 13s 2 4 mph 991.5mb 48f 44f
Thu 01/19 11:00pm 10.5ft 14s 7 13 mph 991.4mb 48f 44f
10:00pm 10ft 14s 7 9 mph 991.5mb 49f 45f
9:00pm 10ft 12s 4 7 mph 991.2mb 49f 45f
8:00pm 9ft 12s 7 9 mph 991.3mb 49f 45f
7:00pm 8.5ft 14s 7 9 mph 991.4mb 49f 45f
6:00pm 7.5ft 11s 9 13 mph 991.3mb 49f 45f
5:00pm 8ft 11s 11 13 mph 991.3mb 49f 44f
4:00pm 8.5ft 11s 11 13 mph 991.2mb 49f 43f
3:00pm 8.5ft 12s 11 13 mph 990.9mb 49f 44f
2:00pm 9.5ft 12s 11 13 mph 990.7mb 49f 44f
1:00pm 9ft 12s 13 16 mph 990.8mb 49f 44f
12:00pm 9.5ft 11s 16 18 mph 990.7mb 49f 44f
11:00am 8.5ft 11s 13 16 mph 990.7mb 49f 44f
10:00am 8ft 12s 13 18 mph 990mb 49f 44f
9:00am 8ft 12s 13 16 mph 989mb 49f 43f
8:00am 8.5ft 11s 16 18 mph 988mb 49f 45f
7:00am 9ft 12s 13 18 mph 987.1mb 49f 46f
6:00am 8.5ft 12s 9 13 mph 986.5mb 49f 45f
5:00am 9ft 11s 13 18 mph 985.1mb 49f 46f
4:00am 9ft 12s 16 20 mph 984.1mb 49f 46f
3:00am 10ft 11s 11 18 mph 984.1mb 49f 46f
2:00am 10ft 12s 7 9 mph 983.7mb 49f 46f
1:00am 11ft 12s 2 4 mph 983.3mb 49f 46f
12:00am 10.5ft 11s 7 9 mph 983.1mb 49f 46f
Wed 01/18 11:00pm 10ft 11s 9 11 mph 982.9mb 49f 46f
10:00pm 10.5ft 11s 9 11 mph 982.5mb 49f 46f
9:00pm 9.5ft 12s 11 13 mph 982mb 49f 46f
8:00pm 8ft 12s 9 13 mph 981mb 49f 47f
7:00pm 9ft 13s 11 13 mph 978.8mb 49f 47f
6:00pm 10ft 12s 13 18 mph 979mb 49f 47f
5:00pm 10ft 13s 13 18 mph 979.2mb 49f 46f
4:00pm 10ft 12s 7 9 mph 979.1mb 49f 46f
3:00pm 10ft 11s 4 9 mph 978.8mb 49f 46f
2:00pm 11ft 11s 7 9 mph 978.4mb 49f 46f
1:00pm 11ft 11s 11 13 mph 978.4mb 49f 45f
12:00pm 10.5ft 10s 11 18 mph 979.5mb 49f 45f
11:00am 12.5ft 10s 11 16 mph 979.9mb 49f 45f
10:00am 12ft 11s 22 27 mph 979.9mb 49f 46f
9:00am 12.5ft 12s 25 31 mph 979.6mb 49f 45f
8:00am 13ft 11s 22 27 mph 979mb 49f 47f
7:00am 12.5ft 10s 27 34 mph 978.2mb 49f 47f
6:00am 14ft 10s 25 31 mph 976.6mb 49f 47f
5:00am 14ft 11s 25 31 mph 975.1mb 49f 47f
4:00am 14.5ft 9s 25 31 mph 973.6mb 49f 48f
3:00am 15ft 10s 27 34 mph 973.5mb 49f 48f
2:00am 15ft 10s 31 40 mph 973.6mb 49f 49f
1:00am 15.5ft 11s 31 38 mph 973.6mb 49f 48f
12:00am 16ft 9s 31 36 mph 973.7mb 49f 49f
Tue 01/17 11:00pm 16.5ft 10s 34 43 mph 973.2mb 49f 49f
10:00pm 15.5ft 10s 36 47 mph 973.7mb 49f 48f
9:00pm 15ft 12s 34 45 mph 974.2mb 49f 48f
8:00pm 16ft 11s 27 34 mph 975.4mb 49f 48f
7:00pm 15ft 10s 29 36 mph 976.5mb 49f 49f
6:00pm 13ft 8s 31 40 mph 977.4mb 49f 49f
5:00pm 14.5ft 10s 22 29 mph 978.9mb 49f 47f
4:00pm 15ft 10s 31 36 mph 979.3mb 49f 46f
3:00pm 14.5ft 10s 31 38 mph 980.1mb 49f 46f
2:00pm 16ft 10s 31 38 mph 980.9mb 49f 46f
1:00pm 19ft 10s 34 40 mph 981.7mb 49f 46f
12:00pm 20.5ft 10s 38 49 mph 982.3mb 49f 46f
11:00am 20ft 10s 40 51 mph 982.9mb 49f 46f
10:00am 20.5ft 10s 40 49 mph 983.1mb 49f 47f
9:00am 19ft 10s 36 47 mph 983.6mb 49f 47f
8:00am 17ft 10s 36 45 mph 984mb 49f 47f
7:00am 16ft 10s 29 36 mph 985.5mb 49f 47f
6:00am 15ft 11s 29
mph
986.9mb 49f 47f
5:00am 15.5ft 10s 31 38 mph 987.9mb 49f 47f
4:00am 16.5ft 9s 34 40 mph 989mb 49f 47f
3:00am 17.5ft 10s 29 38 mph 990.5mb 49f 47f
2:00am 18ft 10s 31 38 mph 991.5mb 49f 47f
1:00am 15.5ft 8s 31 40 mph 992.3mb 49f 47f
12:00am 14.5ft 8s 27 38 mph 993.2mb 49f 48f
Mon 01/16 11:00pm 13.5ft 10s 18 25 mph 993.8mb 49f 48f
10:00pm 14ft 10s 4 9 mph 994.6mb 49f 47f
9:00pm 16ft 10s 7 9 mph 994.8mb 49f 48f
8:00pm 18ft 12s 7 9 mph 994.4mb 49f 48f